sensor_id;sensor_type;location;lat;lon;timestamp;P1;durP1;ratioP1;P2;durP2;ratioP2
26780;SDS011;14366;49.184;8.054;2023-06-24T00:03:28;3.65;;;3.25;;
26780;SDS011;14366;49.184;8.054;2023-06-24T00:09:03;4.00;;;3.50;;
26780;SDS011;14366;49.184;8.054;2023-06-24T00:14:24;4.30;;;3.30;;
26780;SDS011;14366;49.184;8.054;2023-06-24T00:20:01;3.85;;;3.50;;
26780;SDS011;14366;49.184;8.054;2023-06-24T00:25:35;4.67;;;3.50;;
26780;SDS011;14366;49.184;8.054;2023-06-24T00:30:56;5.40;;;3.40;;
26780;SDS011;14366;49.184;8.054;2023-06-24T00:36:19;4.18;;;3.75;;
26780;SDS011;14366;49.184;8.054;2023-06-24T00:41:54;4.47;;;3.60;;
26780;SDS011;14366;49.184;8.054;2023-06-24T00:47:14;4.37;;;3.97;;
26780;SDS011;14366;49.184;8.054;2023-06-24T00:52:51;4.97;;;3.60;;
26780;SDS011;14366;49.184;8.054;2023-06-24T00:58:25;4.37;;;3.37;;
26780;SDS011;14366;49.184;8.054;2023-06-24T01:09:07;4.95;;;3.75;;
26780;SDS011;14366;49.184;8.054;2023-06-24T01:14:41;4.67;;;3.93;;
26780;SDS011;14366;49.184;8.054;2023-06-24T01:20:19;3.90;;;3.50;;
26780;SDS011;14366;49.184;8.054;2023-06-24T01:31:54;4.60;;;3.70;;
26780;SDS011;14366;49.184;8.054;2023-06-24T01:37:32;4.90;;;4.15;;
26780;SDS011;14366;49.184;8.054;2023-06-24T01:43:05;4.20;;;3.80;;
26780;SDS011;14366;49.184;8.054;2023-06-24T01:48:39;4.57;;;4.17;;
26780;SDS011;14366;49.184;8.054;2023-06-24T01:54:13;3.83;;;3.43;;
26780;SDS011;14366;49.184;8.054;2023-06-24T01:59:47;6.93;;;4.03;;
26780;SDS011;14366;49.184;8.054;2023-06-24T02:05:28;16.13;;;4.17;;
26780;SDS011;14366;49.184;8.054;2023-06-24T02:11:03;4.73;;;4.07;;
26780;SDS011;14366;49.184;8.054;2023-06-24T02:16:38;4.70;;;3.90;;
26780;SDS011;14366;49.184;8.054;2023-06-24T02:27:19;3.77;;;3.37;;
26780;SDS011;14366;49.184;8.054;2023-06-24T02:37:56;5.23;;;3.67;;
26780;SDS011;14366;49.184;8.054;2023-06-24T02:43:32;5.55;;;3.80;;
26780;SDS011;14366;49.184;8.054;2023-06-24T02:54:11;4.70;;;3.70;;
26780;SDS011;14366;49.184;8.054;2023-06-24T03:04:52;4.40;;;4.00;;
26780;SDS011;14366;49.184;8.054;2023-06-24T03:10:27;4.00;;;3.60;;
26780;SDS011;14366;49.184;8.054;2023-06-24T03:16:00;6.17;;;4.03;;
26780;SDS011;14366;49.184;8.054;2023-06-24T03:21:36;4.80;;;4.10;;
26780;SDS011;14366;49.184;8.054;2023-06-24T03:27:11;5.10;;;4.30;;
26780;SDS011;14366;49.184;8.054;2023-06-24T03:32:31;5.00;;;4.17;;
26780;SDS011;14366;49.184;8.054;2023-06-24T03:37:53;5.75;;;4.50;;
26780;SDS011;14366;49.184;8.054;2023-06-24T03:43:28;4.73;;;4.07;;
26780;SDS011;14366;49.184;8.054;2023-06-24T03:49:03;4.90;;;4.05;;
26780;SDS011;14366;49.184;8.054;2023-06-24T03:54:39;5.90;;;3.90;;
26780;SDS011;14366;49.184;8.054;2023-06-24T04:00:14;4.30;;;3.55;;
26780;SDS011;14366;49.184;8.054;2023-06-24T04:05:35;6.17;;;4.43;;
26780;SDS011;14366;49.184;8.054;2023-06-24T04:11:09;9.43;;;4.93;;
26780;SDS011;14366;49.184;8.054;2023-06-24T04:16:45;7.20;;;4.85;;
26780;SDS011;14366;49.184;8.054;2023-06-24T04:22:05;5.20;;;4.70;;
26780;SDS011;14366;49.184;8.054;2023-06-24T04:27:39;4.60;;;4.20;;
26780;SDS011;14366;49.184;8.054;2023-06-24T04:33:14;5.33;;;4.33;;
26780;SDS011;14366;49.184;8.054;2023-06-24T04:38:34;5.67;;;4.43;;
26780;SDS011;14366;49.184;8.054;2023-06-24T04:44:11;4.77;;;4.20;;
26780;SDS011;14366;49.184;8.054;2023-06-24T04:49:45;6.75;;;4.30;;
26780;SDS011;14366;49.184;8.054;2023-06-24T04:55:06;4.30;;;3.90;;
26780;SDS011;14366;49.184;8.054;2023-06-24T05:00:28;6.35;;;3.70;;
26780;SDS011;14366;49.184;8.054;2023-06-24T05:06:01;4.93;;;4.07;;
26780;SDS011;14366;49.184;8.054;2023-06-24T05:11:36;5.60;;;3.80;;
26780;SDS011;14366;49.184;8.054;2023-06-24T05:17:12;4.33;;;3.90;;
26780;SDS011;14366;49.184;8.054;2023-06-24T05:22:47;4.30;;;3.90;;
26780;SDS011;14366;49.184;8.054;2023-06-24T05:28:08;6.07;;;4.40;;
26780;SDS011;14366;49.184;8.054;2023-06-24T05:33:44;4.30;;;3.90;;
26780;SDS011;14366;49.184;8.054;2023-06-24T05:39:20;4.70;;;4.20;;
26780;SDS011;14366;49.184;8.054;2023-06-24T05:44:55;5.43;;;4.87;;
26780;SDS011;14366;49.184;8.054;2023-06-24T05:50:33;6.90;;;5.00;;
26780;SDS011;14366;49.184;8.054;2023-06-24T05:56:09;7.10;;;4.50;;
26780;SDS011;14366;49.184;8.054;2023-06-24T06:01:44;7.58;;;5.04;;
26780;SDS011;14366;49.184;8.054;2023-06-24T06:07:06;6.00;;;4.60;;
26780;SDS011;14366;49.184;8.054;2023-06-24T06:12:41;7.67;;;4.90;;
26780;SDS011;14366;49.184;8.054;2023-06-24T06:23:22;7.23;;;4.93;;
26780;SDS011;14366;49.184;8.054;2023-06-24T06:34:00;4.96;;;4.40;;
26780;SDS011;14366;49.184;8.054;2023-06-24T06:44:27;5.82;;;4.50;;
26780;SDS011;14366;49.184;8.054;2023-06-24T06:50:03;5.50;;;4.70;;
26780;SDS011;14366;49.184;8.054;2023-06-24T06:55:38;5.45;;;4.35;;
26780;SDS011;14366;49.184;8.054;2023-06-24T07:01:01;7.87;;;4.67;;
26780;SDS011;14366;49.184;8.054;2023-06-24T07:06:35;6.20;;;4.60;;
26780;SDS011;14366;49.184;8.054;2023-06-24T07:17:16;6.72;;;4.82;;
26780;SDS011;14366;49.184;8.054;2023-06-24T07:27:54;6.62;;;4.70;;
26780;SDS011;14366;49.184;8.054;2023-06-24T07:33:17;5.15;;;4.35;;
26780;SDS011;14366;49.184;8.054;2023-06-24T07:38:51;4.55;;;4.15;;
26780;SDS011;14366;49.184;8.054;2023-06-24T07:44:26;6.20;;;4.80;;
26780;SDS011;14366;49.184;8.054;2023-06-24T07:49:48;4.80;;;4.40;;
26780;SDS011;14366;49.184;8.054;2023-06-24T07:55:23;5.65;;;4.40;;
26780;SDS011;14366;49.184;8.054;2023-06-24T08:00:43;4.97;;;4.03;;
26780;SDS011;14366;49.184;8.054;2023-06-24T08:06:04;5.68;;;4.20;;
26780;SDS011;14366;49.184;8.054;2023-06-24T08:11:40;5.20;;;4.00;;
26780;SDS011;14366;49.184;8.054;2023-06-24T08:17:00;4.60;;;4.10;;
26780;SDS011;14366;49.184;8.054;2023-06-24T08:22:36;5.55;;;3.90;;
26780;SDS011;14366;49.184;8.054;2023-06-24T08:28:11;7.30;;;4.67;;
26780;SDS011;14366;49.184;8.054;2023-06-24T08:33:46;4.00;;;3.60;;
26780;SDS011;14366;49.184;8.054;2023-06-24T08:39:07;4.40;;;3.80;;
26780;SDS011;14366;49.184;8.054;2023-06-24T08:44:43;6.05;;;4.20;;
26780;SDS011;14366;49.184;8.054;2023-06-24T08:50:01;4.47;;;3.65;;
26780;SDS011;14366;49.184;8.054;2023-06-24T08:55:39;4.68;;;3.26;;
26780;SDS011;14366;49.184;8.054;2023-06-24T09:01:12;4.63;;;3.40;;
26780;SDS011;14366;49.184;8.054;2023-06-24T09:06:47;3.96;;;3.56;;
26780;SDS011;14366;49.184;8.054;2023-06-24T09:12:24;4.15;;;3.70;;
26780;SDS011;14366;49.184;8.054;2023-06-24T09:17:59;5.78;;;3.58;;
26780;SDS011;14366;49.184;8.054;2023-06-24T09:23:35;4.45;;;3.53;;
26780;SDS011;14366;49.184;8.054;2023-06-24T09:29:11;4.00;;;3.60;;
26780;SDS011;14366;49.184;8.054;2023-06-24T09:34:47;4.00;;;3.58;;
26780;SDS011;14366;49.184;8.054;2023-06-24T09:40:22;5.55;;;3.80;;
26780;SDS011;14366;49.184;8.054;2023-06-24T09:45:59;4.80;;;3.37;;
26780;SDS011;14366;49.184;8.054;2023-06-24T09:51:37;4.10;;;3.06;;
26780;SDS011;14366;49.184;8.054;2023-06-24T09:57:10;5.30;;;3.45;;
26780;SDS011;14366;49.184;8.054;2023-06-24T10:02:47;4.06;;;3.34;;
26780;SDS011;14366;49.184;8.054;2023-06-24T10:08:23;4.57;;;3.37;;
26780;SDS011;14366;49.184;8.054;2023-06-24T10:13:58;3.80;;;3.50;;
26780;SDS011;14366;49.184;8.054;2023-06-24T10:19:20;4.50;;;3.50;;
26780;SDS011;14366;49.184;8.054;2023-06-24T10:24:52;3.80;;;3.40;;
26780;SDS011;14366;49.184;8.054;2023-06-24T10:30:27;3.60;;;3.25;;
26780;SDS011;14366;49.184;8.054;2023-06-24T10:35:48;3.97;;;3.40;;
26780;SDS011;14366;49.184;8.054;2023-06-24T10:41:24;6.20;;;3.50;;
26780;SDS011;14366;49.184;8.054;2023-06-24T10:52:05;5.70;;;3.90;;
26780;SDS011;14366;49.184;8.054;2023-06-24T11:02:45;4.20;;;3.60;;
26780;SDS011;14366;49.184;8.054;2023-06-24T11:08:22;4.72;;;3.72;;
26780;SDS011;14366;49.184;8.054;2023-06-24T11:13:58;3.90;;;3.40;;
26780;SDS011;14366;49.184;8.054;2023-06-24T11:19:18;3.85;;;3.45;;
26780;SDS011;14366;49.184;8.054;2023-06-24T11:24:39;4.12;;;3.37;;
26780;SDS011;14366;49.184;8.054;2023-06-24T11:30:15;5.93;;;3.53;;
26780;SDS011;14366;49.184;8.054;2023-06-24T11:35:51;7.07;;;2.95;;
26780;SDS011;14366;49.184;8.054;2023-06-24T11:41:13;3.50;;;3.20;;
26780;SDS011;14366;49.184;8.054;2023-06-24T11:46:49;4.10;;;3.37;;
26780;SDS011;14366;49.184;8.054;2023-06-24T11:52:27;3.80;;;3.40;;
26780;SDS011;14366;49.184;8.054;2023-06-24T11:58:04;3.60;;;3.30;;
26780;SDS011;14366;49.184;8.054;2023-06-24T12:03:38;4.60;;;3.30;;
26780;SDS011;14366;49.184;8.054;2023-06-24T12:09:13;5.52;;;3.42;;
26780;SDS011;14366;49.184;8.054;2023-06-24T12:19:40;3.50;;;3.20;;
26780;SDS011;14366;49.184;8.054;2023-06-24T12:30:16;2.97;;;2.67;;
26780;SDS011;14366;49.184;8.054;2023-06-24T12:35:53;3.58;;;3.22;;
26780;SDS011;14366;49.184;8.054;2023-06-24T12:41:27;3.60;;;3.00;;
26780;SDS011;14366;49.184;8.054;2023-06-24T12:47:02;3.97;;;2.90;;
26780;SDS011;14366;49.184;8.054;2023-06-24T12:52:40;3.35;;;2.80;;
26780;SDS011;14366;49.184;8.054;2023-06-24T12:58:13;5.05;;;2.85;;
26780;SDS011;14366;49.184;8.054;2023-06-24T13:03:48;2.92;;;2.50;;
26780;SDS011;14366;49.184;8.054;2023-06-24T13:09:10;5.32;;;2.78;;
26780;SDS011;14366;49.184;8.054;2023-06-24T13:14:44;3.25;;;2.65;;
26780;SDS011;14366;49.184;8.054;2023-06-24T13:20:06;4.20;;;2.80;;
26780;SDS011;14366;49.184;8.054;2023-06-24T13:25:43;3.50;;;2.90;;
26780;SDS011;14366;49.184;8.054;2023-06-24T13:31:17;3.40;;;3.00;;
26780;SDS011;14366;49.184;8.054;2023-06-24T13:36:52;3.85;;;2.90;;
26780;SDS011;14366;49.184;8.054;2023-06-24T13:42:29;4.88;;;3.18;;
26780;SDS011;14366;49.184;8.054;2023-06-24T13:48:03;3.25;;;2.95;;
26780;SDS011;14366;49.184;8.054;2023-06-24T13:53:38;4.35;;;3.00;;
26780;SDS011;14366;49.184;8.054;2023-06-24T13:59:01;3.24;;;2.78;;
26780;SDS011;14366;49.184;8.054;2023-06-24T14:04:35;3.70;;;3.40;;
26780;SDS011;14366;49.184;8.054;2023-06-24T14:09:55;3.55;;;2.90;;
26780;SDS011;14366;49.184;8.054;2023-06-24T14:15:17;4.53;;;3.03;;
26780;SDS011;14366;49.184;8.054;2023-06-24T14:20:52;4.95;;;3.17;;
26780;SDS011;14366;49.184;8.054;2023-06-24T14:26:27;3.30;;;2.90;;
26780;SDS011;14366;49.184;8.054;2023-06-24T14:32:03;3.72;;;2.92;;
26780;SDS011;14366;49.184;8.054;2023-06-24T14:37:39;3.20;;;2.90;;
26780;SDS011;14366;49.184;8.054;2023-06-24T14:43:14;3.30;;;2.90;;
26780;SDS011;14366;49.184;8.054;2023-06-24T14:48:51;3.30;;;3.00;;
26780;SDS011;14366;49.184;8.054;2023-06-24T14:54:26;3.97;;;3.00;;
26780;SDS011;14366;49.184;8.054;2023-06-24T14:59:47;4.10;;;3.00;;
26780;SDS011;14366;49.184;8.054;2023-06-24T15:05:23;3.47;;;2.93;;
26780;SDS011;14366;49.184;8.054;2023-06-24T15:10:58;5.40;;;3.40;;
26780;SDS011;14366;49.184;8.054;2023-06-24T15:16:30;4.33;;;3.13;;
26780;SDS011;14366;49.184;8.054;2023-06-24T15:22:06;3.33;;;3.03;;
26780;SDS011;14366;49.184;8.054;2023-06-24T15:27:41;4.28;;;2.95;;
26780;SDS011;14366;49.184;8.054;2023-06-24T15:33:01;3.65;;;3.10;;
26780;SDS011;14366;49.184;8.054;2023-06-24T15:38:23;5.00;;;3.00;;
26780;SDS011;14366;49.184;8.054;2023-06-24T15:43:56;3.32;;;2.70;;
26780;SDS011;14366;49.184;8.054;2023-06-24T15:49:16;4.08;;;3.08;;
26780;SDS011;14366;49.184;8.054;2023-06-24T15:54:52;3.50;;;3.20;;
26780;SDS011;14366;49.184;8.054;2023-06-24T16:00:28;3.78;;;3.28;;
26780;SDS011;14366;49.184;8.054;2023-06-24T16:06:03;3.37;;;2.80;;
26780;SDS011;14366;49.184;8.054;2023-06-24T16:11:40;5.87;;;3.40;;
26780;SDS011;14366;49.184;8.054;2023-06-24T16:17:15;3.50;;;3.20;;
26780;SDS011;14366;49.184;8.054;2023-06-24T16:22:50;3.63;;;3.33;;
26780;SDS011;14366;49.184;8.054;2023-06-24T16:28:11;3.40;;;3.10;;
26780;SDS011;14366;49.184;8.054;2023-06-24T16:33:46;3.47;;;3.17;;
26780;SDS011;14366;49.184;8.054;2023-06-24T16:39:21;5.00;;;3.00;;
26780;SDS011;14366;49.184;8.054;2023-06-24T16:44:57;4.20;;;3.20;;
26780;SDS011;14366;49.184;8.054;2023-06-24T16:55:37;6.03;;;3.30;;
26780;SDS011;14366;49.184;8.054;2023-06-24T17:06:14;4.97;;;3.33;;
26780;SDS011;14366;49.184;8.054;2023-06-24T17:16:52;5.93;;;3.40;;
26780;SDS011;14366;49.184;8.054;2023-06-24T17:22:28;3.95;;;3.55;;
26780;SDS011;14366;49.184;8.054;2023-06-24T17:28:01;5.37;;;3.65;;
26780;SDS011;14366;49.184;8.054;2023-06-24T17:33:36;4.65;;;3.30;;
26780;SDS011;14366;49.184;8.054;2023-06-24T17:38:57;3.70;;;3.30;;
26780;SDS011;14366;49.184;8.054;2023-06-24T17:44:32;4.62;;;3.40;;
26780;SDS011;14366;49.184;8.054;2023-06-24T17:50:07;3.40;;;3.10;;
26780;SDS011;14366;49.184;8.054;2023-06-24T17:55:44;3.67;;;3.37;;
26780;SDS011;14366;49.184;8.054;2023-06-24T18:01:17;4.20;;;3.60;;
26780;SDS011;14366;49.184;8.054;2023-06-24T18:06:52;4.00;;;3.60;;
26780;SDS011;14366;49.184;8.054;2023-06-24T18:12:14;3.70;;;3.30;;
26780;SDS011;14366;49.184;8.054;2023-06-24T18:17:48;4.40;;;3.60;;
26780;SDS011;14366;49.184;8.054;2023-06-24T18:23:23;4.07;;;3.30;;
26780;SDS011;14366;49.184;8.054;2023-06-24T18:28:59;4.40;;;3.55;;
26780;SDS011;14366;49.184;8.054;2023-06-24T18:34:34;3.60;;;3.30;;
26780;SDS011;14366;49.184;8.054;2023-06-24T18:40:09;3.85;;;3.05;;
26780;SDS011;14366;49.184;8.054;2023-06-24T18:45:32;3.32;;;3.02;;
26780;SDS011;14366;49.184;8.054;2023-06-24T18:51:06;3.97;;;3.45;;
26780;SDS011;14366;49.184;8.054;2023-06-24T19:01:45;4.73;;;3.87;;
26780;SDS011;14366;49.184;8.054;2023-06-24T19:12:25;3.90;;;3.35;;
26780;SDS011;14366;49.184;8.054;2023-06-24T19:17:47;4.70;;;3.40;;
26780;SDS011;14366;49.184;8.054;2023-06-24T19:23:21;4.12;;;3.40;;
26780;SDS011;14366;49.184;8.054;2023-06-24T19:28:39;4.20;;;3.65;;
26780;SDS011;14366;49.184;8.054;2023-06-24T19:33:58;4.10;;;3.65;;
26780;SDS011;14366;49.184;8.054;2023-06-24T19:39:29;4.20;;;3.57;;
26780;SDS011;14366;49.184;8.054;2023-06-24T19:45:00;3.90;;;3.50;;
26780;SDS011;14366;49.184;8.054;2023-06-24T19:50:23;4.80;;;4.10;;
26780;SDS011;14366;49.184;8.054;2023-06-24T19:55:54;5.65;;;4.00;;
26780;SDS011;14366;49.184;8.054;2023-06-24T20:01:11;4.30;;;3.90;;
26780;SDS011;14366;49.184;8.054;2023-06-24T20:06:48;5.75;;;4.45;;
26780;SDS011;14366;49.184;8.054;2023-06-24T20:12:22;5.40;;;4.14;;
26780;SDS011;14366;49.184;8.054;2023-06-24T20:22:59;4.90;;;4.40;;
26780;SDS011;14366;49.184;8.054;2023-06-24T20:33:38;4.40;;;4.00;;
26780;SDS011;14366;49.184;8.054;2023-06-24T20:44:15;6.45;;;4.80;;
26780;SDS011;14366;49.184;8.054;2023-06-24T20:55:08;5.22;;;4.50;;
26780;SDS011;14366;49.184;8.054;2023-06-24T21:00:44;8.20;;;4.70;;
26780;SDS011;14366;49.184;8.054;2023-06-24T21:11:23;5.57;;;4.43;;
26780;SDS011;14366;49.184;8.054;2023-06-24T21:16:59;5.00;;;4.28;;
26780;SDS011;14366;49.184;8.054;2023-06-24T21:22:33;7.50;;;4.60;;
26780;SDS011;14366;49.184;8.054;2023-06-24T21:28:06;6.00;;;4.60;;
26780;SDS011;14366;49.184;8.054;2023-06-24T21:33:24;6.78;;;5.20;;
26780;SDS011;14366;49.184;8.054;2023-06-24T21:38:57;4.97;;;4.47;;
26780;SDS011;14366;49.184;8.054;2023-06-24T21:44:32;6.15;;;4.50;;
26780;SDS011;14366;49.184;8.054;2023-06-24T21:54:56;5.72;;;4.97;;
26780;SDS011;14366;49.184;8.054;2023-06-24T22:00:31;6.40;;;4.70;;
26780;SDS011;14366;49.184;8.054;2023-06-24T22:06:03;5.20;;;4.70;;
26780;SDS011;14366;49.184;8.054;2023-06-24T22:11:22;5.65;;;5.05;;
26780;SDS011;14366;49.184;8.054;2023-06-24T22:16:54;5.37;;;4.50;;
26780;SDS011;14366;49.184;8.054;2023-06-24T22:22:14;7.03;;;4.80;;
26780;SDS011;14366;49.184;8.054;2023-06-24T22:27:32;5.63;;;4.40;;
26780;SDS011;14366;49.184;8.054;2023-06-24T22:33:07;5.20;;;4.60;;
26780;SDS011;14366;49.184;8.054;2023-06-24T22:43:30;5.10;;;4.60;;
26780;SDS011;14366;49.184;8.054;2023-06-24T22:54:07;6.87;;;4.60;;
26780;SDS011;14366;49.184;8.054;2023-06-24T22:59:40;4.50;;;4.00;;
26780;SDS011;14366;49.184;8.054;2023-06-24T23:05:13;5.18;;;4.68;;
26780;SDS011;14366;49.184;8.054;2023-06-24T23:10:46;7.78;;;4.50;;
26780;SDS011;14366;49.184;8.054;2023-06-24T23:16:20;4.80;;;4.30;;
26780;SDS011;14366;49.184;8.054;2023-06-24T23:21:55;5.65;;;4.93;;
26780;SDS011;14366;49.184;8.054;2023-06-24T23:27:27;5.15;;;4.65;;
26780;SDS011;14366;49.184;8.054;2023-06-24T23:33:01;6.25;;;4.70;;
26780;SDS011;14366;49.184;8.054;2023-06-24T23:38:35;5.30;;;4.50;;
26780;SDS011;14366;49.184;8.054;2023-06-24T23:49:01;6.27;;;4.67;;
26780;SDS011;14366;49.184;8.054;2023-06-24T23:54:33;6.90;;;4.60;;
